sensor_id;sensor_type;location;lat;lon;timestamp;temperature;humidity
77519;DHT22;66629;47.346;19.038;2023-02-15T00:01:10;-1.37;87.30
77519;DHT22;66629;47.346;19.038;2023-02-15T00:03:37;-1.41;87.27
77519;DHT22;66629;47.346;19.038;2023-02-15T00:06:04;-1.41;87.12
77519;DHT22;66629;47.346;19.038;2023-02-15T00:08:29;-1.45;87.86
77519;DHT22;66629;47.346;19.038;2023-02-15T00:11:05;-1.48;87.52
77519;DHT22;66629;47.346;19.038;2023-02-15T00:13:31;-1.48;88.97
77519;DHT22;66629;47.346;19.038;2023-02-15T00:16:05;-1.41;88.86
77519;DHT22;66629;47.346;19.038;2023-02-15T00:18:31;-1.51;87.75
77519;DHT22;66629;47.346;19.038;2023-02-15T00:20:58;-1.59;88.81
77519;DHT22;66629;47.346;19.038;2023-02-15T00:23:24;-1.61;89.40
77519;DHT22;66629;47.346;19.038;2023-02-15T00:25:51;-1.66;88.08
77519;DHT22;66629;47.346;19.038;2023-02-15T00:28:16;-1.69;88.47
77519;DHT22;66629;47.346;19.038;2023-02-15T00:30:41;-1.75;89.14
77519;DHT22;66629;47.346;19.038;2023-02-15T00:33:07;-1.78;88.33
77519;DHT22;66629;47.346;19.038;2023-02-15T00:35:32;-1.75;88.37
77519;DHT22;66629;47.346;19.038;2023-02-15T00:37:58;-1.78;88.48
77519;DHT22;66629;47.346;19.038;2023-02-15T00:40:23;-1.75;89.34
77519;DHT22;66629;47.346;19.038;2023-02-15T00:42:48;-1.73;88.46
77519;DHT22;66629;47.346;19.038;2023-02-15T00:45:14;-1.72;87.95
77519;DHT22;66629;47.346;19.038;2023-02-15T00:47:39;-1.75;88.90
77519;DHT22;66629;47.346;19.038;2023-02-15T00:50:05;-1.76;88.51
77519;DHT22;66629;47.346;19.038;2023-02-15T00:52:31;-1.79;87.65
77519;DHT22;66629;47.346;19.038;2023-02-15T00:54:56;-1.70;88.67
77519;DHT22;66629;47.346;19.038;2023-02-15T00:57:22;-1.75;87.93
77519;DHT22;66629;47.346;19.038;2023-02-15T00:59:47;-1.85;88.64
77519;DHT22;66629;47.346;19.038;2023-02-15T01:02:12;-1.83;88.38
77519;DHT22;66629;47.346;19.038;2023-02-15T01:04:38;-1.87;87.62
77519;DHT22;66629;47.346;19.038;2023-02-15T01:07:03;-1.89;87.62
77519;DHT22;66629;47.346;19.038;2023-02-15T01:09:29;-1.87;88.08
77519;DHT22;66629;47.346;19.038;2023-02-15T01:11:54;-1.91;88.17
77519;DHT22;66629;47.346;19.038;2023-02-15T01:14:20;-1.93;88.23
77519;DHT22;66629;47.346;19.038;2023-02-15T01:16:45;-1.93;89.15
77519;DHT22;66629;47.346;19.038;2023-02-15T01:19:11;-1.93;88.35
77519;DHT22;66629;47.346;19.038;2023-02-15T01:21:37;-1.93;87.93
77519;DHT22;66629;47.346;19.038;2023-02-15T01:24:03;-2.03;88.49
77519;DHT22;66629;47.346;19.038;2023-02-15T01:26:28;-2.04;88.32
77519;DHT22;66629;47.346;19.038;2023-02-15T01:28:53;-2.08;88.87
77519;DHT22;66629;47.346;19.038;2023-02-15T01:31:20;-2.05;88.47
77519;DHT22;66629;47.346;19.038;2023-02-15T01:33:47;-2.10;88.18
77519;DHT22;66629;47.346;19.038;2023-02-15T01:36:13;-2.14;89.03
77519;DHT22;66629;47.346;19.038;2023-02-15T01:38:39;-2.14;88.63
77519;DHT22;66629;47.346;19.038;2023-02-15T01:41:08;-2.11;88.88
77519;DHT22;66629;47.346;19.038;2023-02-15T01:43:58;-2.13;89.04
77519;DHT22;66629;47.346;19.038;2023-02-15T01:49:00;-2.15;89.04
77519;DHT22;66629;47.346;19.038;2023-02-15T01:51:29;-2.20;88.33
77519;DHT22;66629;47.346;19.038;2023-02-15T01:54:09;-2.15;88.46
77519;DHT22;66629;47.346;19.038;2023-02-15T01:56:39;-2.17;87.90
77519;DHT22;66629;47.346;19.038;2023-02-15T01:59:09;-2.14;89.45
77519;DHT22;66629;47.346;19.038;2023-02-15T02:01:37;-2.18;88.00
77519;DHT22;66629;47.346;19.038;2023-02-15T02:04:25;-2.20;88.47
77519;DHT22;66629;47.346;19.038;2023-02-15T02:06:54;-2.22;88.26
77519;DHT22;66629;47.346;19.038;2023-02-15T02:09:19;-2.27;88.76
77519;DHT22;66629;47.346;19.038;2023-02-15T02:11:46;-2.27;88.74
77519;DHT22;66629;47.346;19.038;2023-02-15T02:14:13;-2.31;87.98
77519;DHT22;66629;47.346;19.038;2023-02-15T02:17:01;-2.29;87.81
77519;DHT22;66629;47.346;19.038;2023-02-15T02:20:03;-2.31;88.33
77519;DHT22;66629;47.346;19.038;2023-02-15T02:35:42;-2.22;88.33
77519;DHT22;66629;47.346;19.038;2023-02-15T02:38:31;-2.31;88.27
77519;DHT22;66629;47.346;19.038;2023-02-15T02:41:22;-2.38;88.24
77519;DHT22;66629;47.346;19.038;2023-02-15T02:46:59;-2.41;87.70
77519;DHT22;66629;47.346;19.038;2023-02-15T02:49:38;-2.42;87.89
77519;DHT22;66629;47.346;19.038;2023-02-15T02:52:51;-2.44;88.10
77519;DHT22;66629;47.346;19.038;2023-02-15T02:54:51;-2.48;88.69
77519;DHT22;66629;47.346;19.038;2023-02-15T02:57:18;-2.48;88.93
77519;DHT22;66629;47.346;19.038;2023-02-15T02:59:46;-2.48;88.97
77519;DHT22;66629;47.346;19.038;2023-02-15T03:02:27;-2.49;89.41
77519;DHT22;66629;47.346;19.038;2023-02-15T03:04:59;-2.46;88.94
77519;DHT22;66629;47.346;19.038;2023-02-15T03:07:30;-2.53;87.90
77519;DHT22;66629;47.346;19.038;2023-02-15T03:09:57;-2.53;88.29
77519;DHT22;66629;47.346;19.038;2023-02-15T03:12:27;-2.55;88.22
77519;DHT22;66629;47.346;19.038;2023-02-15T03:15:04;-2.56;88.25
77519;DHT22;66629;47.346;19.038;2023-02-15T03:17:33;-2.59;87.73
77519;DHT22;66629;47.346;19.038;2023-02-15T03:20:04;-2.63;87.71
77519;DHT22;66629;47.346;19.038;2023-02-15T03:22:37;-2.70;88.73
77519;DHT22;66629;47.346;19.038;2023-02-15T03:25:14;-2.70;89.00
77519;DHT22;66629;47.346;19.038;2023-02-15T03:27:44;-2.72;88.79
77519;DHT22;66629;47.346;19.038;2023-02-15T03:30:11;-2.72;89.12
77519;DHT22;66629;47.346;19.038;2023-02-15T03:32:39;-2.76;88.70
77519;DHT22;66629;47.346;19.038;2023-02-15T03:35:06;-2.74;88.66
77519;DHT22;66629;47.346;19.038;2023-02-15T03:37:45;-2.74;90.25
77519;DHT22;66629;47.346;19.038;2023-02-15T03:40:37;-2.73;89.02
77519;DHT22;66629;47.346;19.038;2023-02-15T03:43:24;-2.76;88.12
77519;DHT22;66629;47.346;19.038;2023-02-15T03:45:56;-2.79;88.18
77519;DHT22;66629;47.346;19.038;2023-02-15T03:48:36;-2.81;88.62
77519;DHT22;66629;47.346;19.038;2023-02-15T03:51:07;-2.83;87.97
77519;DHT22;66629;47.346;19.038;2023-02-15T03:53:54;-2.83;87.93
77519;DHT22;66629;47.346;19.038;2023-02-15T03:56:20;-2.84;88.20
77519;DHT22;66629;47.346;19.038;2023-02-15T03:58:46;-2.84;88.16
77519;DHT22;66629;47.346;19.038;2023-02-15T04:01:49;-2.88;89.18
77519;DHT22;66629;47.346;19.038;2023-02-15T04:04:30;-2.87;88.55
77519;DHT22;66629;47.346;19.038;2023-02-15T04:06:57;-2.84;88.48
77519;DHT22;66629;47.346;19.038;2023-02-15T04:09:23;-2.85;88.20
77519;DHT22;66629;47.346;19.038;2023-02-15T04:12:07;-2.85;88.69
77519;DHT22;66629;47.346;19.038;2023-02-15T04:14:33;-2.90;88.75
77519;DHT22;66629;47.346;19.038;2023-02-15T04:17:17;-2.95;90.39
77519;DHT22;66629;47.346;19.038;2023-02-15T04:19:42;-2.90;91.77
77519;DHT22;66629;47.346;19.038;2023-02-15T04:22:26;-2.97;88.84
77519;DHT22;66629;47.346;19.038;2023-02-15T04:25:10;-3.01;88.48
77519;DHT22;66629;47.346;19.038;2023-02-15T04:27:41;-3.04;88.70
77519;DHT22;66629;47.346;19.038;2023-02-15T04:30:08;-3.08;88.53
77519;DHT22;66629;47.346;19.038;2023-02-15T04:32:34;-3.07;88.70
77519;DHT22;66629;47.346;19.038;2023-02-15T04:35:00;-3.09;88.22
77519;DHT22;66629;47.346;19.038;2023-02-15T04:37:26;-3.09;89.15
77519;DHT22;66629;47.346;19.038;2023-02-15T04:39:51;-3.15;89.38
77519;DHT22;66629;47.346;19.038;2023-02-15T04:42:17;-3.15;90.36
77519;DHT22;66629;47.346;19.038;2023-02-15T04:44:43;-3.17;90.24
77519;DHT22;66629;47.346;19.038;2023-02-15T04:47:08;-3.17;89.60
77519;DHT22;66629;47.346;19.038;2023-02-15T04:49:34;-3.17;88.94
77519;DHT22;66629;47.346;19.038;2023-02-15T04:51:59;-3.25;88.80
77519;DHT22;66629;47.346;19.038;2023-02-15T04:54:25;-3.22;88.74
77519;DHT22;66629;47.346;19.038;2023-02-15T04:56:50;-3.22;88.58
77519;DHT22;66629;47.346;19.038;2023-02-15T04:59:16;-3.23;90.90
77519;DHT22;66629;47.346;19.038;2023-02-15T05:01:41;-3.19;90.91
77519;DHT22;66629;47.346;19.038;2023-02-15T05:04:07;-3.15;90.70
77519;DHT22;66629;47.346;19.038;2023-02-15T05:06:32;-3.12;90.28
77519;DHT22;66629;47.346;19.038;2023-02-15T05:08:58;-3.12;90.66
77519;DHT22;66629;47.346;19.038;2023-02-15T05:11:25;-3.12;89.55
77519;DHT22;66629;47.346;19.038;2023-02-15T05:13:50;-3.20;88.47
77519;DHT22;66629;47.346;19.038;2023-02-15T05:16:16;-3.26;89.28
77519;DHT22;66629;47.346;19.038;2023-02-15T05:18:42;-3.26;89.46
77519;DHT22;66629;47.346;19.038;2023-02-15T05:21:07;-3.33;89.12
77519;DHT22;66629;47.346;19.038;2023-02-15T05:23:32;-3.32;88.69
77519;DHT22;66629;47.346;19.038;2023-02-15T05:25:58;-3.36;88.31
77519;DHT22;66629;47.346;19.038;2023-02-15T05:28:42;-3.42;89.77
77519;DHT22;66629;47.346;19.038;2023-02-15T05:33:33;-3.39;88.78
77519;DHT22;66629;47.346;19.038;2023-02-15T05:35:59;-3.40;88.54
77519;DHT22;66629;47.346;19.038;2023-02-15T05:38:25;-3.43;88.98
77519;DHT22;66629;47.346;19.038;2023-02-15T05:40:51;-3.44;89.05
77519;DHT22;66629;47.346;19.038;2023-02-15T05:43:17;-3.46;88.48
77519;DHT22;66629;47.346;19.038;2023-02-15T05:45:46;-3.42;88.96
77519;DHT22;66629;47.346;19.038;2023-02-15T05:48:12;-3.42;89.26
77519;DHT22;66629;47.346;19.038;2023-02-15T05:50:37;-3.42;88.72
77519;DHT22;66629;47.346;19.038;2023-02-15T05:53:03;-3.40;88.33
77519;DHT22;66629;47.346;19.038;2023-02-15T05:55:28;-3.40;88.09
77519;DHT22;66629;47.346;19.038;2023-02-15T05:57:53;-3.39;87.35
77519;DHT22;66629;47.346;19.038;2023-02-15T06:00:19;-3.40;87.55
77519;DHT22;66629;47.346;19.038;2023-02-15T06:02:45;-3.40;87.78
77519;DHT22;66629;47.346;19.038;2023-02-15T06:05:11;-3.35;87.87
77519;DHT22;66629;47.346;19.038;2023-02-15T06:07:37;-3.33;88.86
77519;DHT22;66629;47.346;19.038;2023-02-15T06:10:03;-3.32;88.98
77519;DHT22;66629;47.346;19.038;2023-02-15T06:12:29;-3.29;88.79
77519;DHT22;66629;47.346;19.038;2023-02-15T06:14:54;-3.28;88.80
77519;DHT22;66629;47.346;19.038;2023-02-15T06:17:19;-3.25;89.38
77519;DHT22;66629;47.346;19.038;2023-02-15T06:19:46;-3.23;88.54
77519;DHT22;66629;47.346;19.038;2023-02-15T06:22:12;-3.15;88.97
77519;DHT22;66629;47.346;19.038;2023-02-15T06:24:39;-3.09;88.54
77519;DHT22;66629;47.346;19.038;2023-02-15T06:27:05;-3.04;88.27
77519;DHT22;66629;47.346;19.038;2023-02-15T06:29:30;-2.91;88.60
77519;DHT22;66629;47.346;19.038;2023-02-15T06:31:55;-2.66;88.61
77519;DHT22;66629;47.346;19.038;2023-02-15T06:34:21;-2.37;88.54
77519;DHT22;66629;47.346;19.038;2023-02-15T06:36:46;-2.05;86.70
77519;DHT22;66629;47.346;19.038;2023-02-15T06:39:12;-1.69;86.49
77519;DHT22;66629;47.346;19.038;2023-02-15T06:41:37;-1.38;84.94
77519;DHT22;66629;47.346;19.038;2023-02-15T06:44:03;-1.11;84.03
77519;DHT22;66629;47.346;19.038;2023-02-15T06:46:28;-0.89;82.85
77519;DHT22;66629;47.346;19.038;2023-02-15T06:48:53;-0.65;83.09
77519;DHT22;66629;47.346;19.038;2023-02-15T06:51:19;-0.43;82.35
77519;DHT22;66629;47.346;19.038;2023-02-15T06:53:44;-0.18;81.24
77519;DHT22;66629;47.346;19.038;2023-02-15T06:56:10;0.02;80.98
77519;DHT22;66629;47.346;19.038;2023-02-15T06:58:37;0.26;80.33
77519;DHT22;66629;47.346;19.038;2023-02-15T07:01:04;0.47;79.46
77519;DHT22;66629;47.346;19.038;2023-02-15T07:03:29;0.79;80.22
77519;DHT22;66629;47.346;19.038;2023-02-15T07:05:56;0.95;79.00
77519;DHT22;66629;47.346;19.038;2023-02-15T07:08:22;1.23;79.14
77519;DHT22;66629;47.346;19.038;2023-02-15T07:10:49;1.43;78.48
77519;DHT22;66629;47.346;19.038;2023-02-15T07:13:15;1.63;78.55
77519;DHT22;66629;47.346;19.038;2023-02-15T07:15:40;1.80;78.00
77519;DHT22;66629;47.346;19.038;2023-02-15T07:18:06;1.99;78.03
77519;DHT22;66629;47.346;19.038;2023-02-15T07:20:31;2.14;77.72
77519;DHT22;66629;47.346;19.038;2023-02-15T07:22:58;2.27;77.29
77519;DHT22;66629;47.346;19.038;2023-02-15T07:25:24;2.41;77.22
77519;DHT22;66629;47.346;19.038;2023-02-15T07:27:58;2.53;76.46
77519;DHT22;66629;47.346;19.038;2023-02-15T07:30:24;2.66;77.28
77519;DHT22;66629;47.346;19.038;2023-02-15T07:32:49;2.67;77.54
77519;DHT22;66629;47.346;19.038;2023-02-15T07:35:35;1.94;79.05
77519;DHT22;66629;47.346;19.038;2023-02-15T07:38:00;1.45;82.58
77519;DHT22;66629;47.346;19.038;2023-02-15T07:40:26;1.47;83.11
77519;DHT22;66629;47.346;19.038;2023-02-15T07:42:52;1.51;83.24
77519;DHT22;66629;47.346;19.038;2023-02-15T07:45:20;1.38;83.68
77519;DHT22;66629;47.346;19.038;2023-02-15T07:47:45;1.50;83.79
77519;DHT22;66629;47.346;19.038;2023-02-15T07:50:11;1.62;83.67
77519;DHT22;66629;47.346;19.038;2023-02-15T07:52:36;1.72;83.25
77519;DHT22;66629;47.346;19.038;2023-02-15T07:55:02;1.50;84.05
77519;DHT22;66629;47.346;19.038;2023-02-15T07:57:28;1.79;83.58
77519;DHT22;66629;47.346;19.038;2023-02-15T07:59:53;1.97;82.94
77519;DHT22;66629;47.346;19.038;2023-02-15T08:02:18;1.90;82.86
77519;DHT22;66629;47.346;19.038;2023-02-15T08:04:44;2.03;82.47
77519;DHT22;66629;47.346;19.038;2023-02-15T08:07:09;2.21;82.24
77519;DHT22;66629;47.346;19.038;2023-02-15T08:09:35;2.48;81.80
77519;DHT22;66629;47.346;19.038;2023-02-15T08:12:00;2.53;80.94
77519;DHT22;66629;47.346;19.038;2023-02-15T08:14:27;2.90;80.71
77519;DHT22;66629;47.346;19.038;2023-02-15T08:16:55;3.07;80.33
77519;DHT22;66629;47.346;19.038;2023-02-15T08:19:25;3.64;78.25
77519;DHT22;66629;47.346;19.038;2023-02-15T08:22:12;4.05;77.04
77519;DHT22;66629;47.346;19.038;2023-02-15T08:24:38;3.35;78.25
77519;DHT22;66629;47.346;19.038;2023-02-15T08:27:04;3.56;78.26
77519;DHT22;66629;47.346;19.038;2023-02-15T08:29:31;3.63;78.70
77519;DHT22;66629;47.346;19.038;2023-02-15T08:31:59;3.43;78.90
77519;DHT22;66629;47.346;19.038;2023-02-15T08:34:27;3.95;78.64
77519;DHT22;66629;47.346;19.038;2023-02-15T08:36:53;4.64;75.70
77519;DHT22;66629;47.346;19.038;2023-02-15T08:39:19;4.37;75.98
77519;DHT22;66629;47.346;19.038;2023-02-15T08:41:46;5.19;74.29
77519;DHT22;66629;47.346;19.038;2023-02-15T08:44:13;5.69;72.27
77519;DHT22;66629;47.346;19.038;2023-02-15T08:46:41;6.22;70.94
77519;DHT22;66629;47.346;19.038;2023-02-15T08:49:06;6.03;70.98
77519;DHT22;66629;47.346;19.038;2023-02-15T08:51:34;6.34;70.18
77519;DHT22;66629;47.346;19.038;2023-02-15T08:54:02;6.29;69.92
77519;DHT22;66629;47.346;19.038;2023-02-15T08:56:32;5.60;70.98
77519;DHT22;66629;47.346;19.038;2023-02-15T08:58:58;6.45;69.63
77519;DHT22;66629;47.346;19.038;2023-02-15T09:01:26;6.69;68.53
77519;DHT22;66629;47.346;19.038;2023-02-15T09:03:55;6.67;68.07
77519;DHT22;66629;47.346;19.038;2023-02-15T09:06:22;7.09;66.78
77519;DHT22;66629;47.346;19.038;2023-02-15T09:08:48;7.30;66.14
77519;DHT22;66629;47.346;19.038;2023-02-15T09:11:21;7.57;64.79
77519;DHT22;66629;47.346;19.038;2023-02-15T09:13:50;7.32;64.54
77519;DHT22;66629;47.346;19.038;2023-02-15T09:16:16;7.52;64.64
77519;DHT22;66629;47.346;19.038;2023-02-15T09:18:42;7.64;64.45
77519;DHT22;66629;47.346;19.038;2023-02-15T09:21:16;7.36;63.92
77519;DHT22;66629;47.346;19.038;2023-02-15T09:23:43;7.45;64.15
77519;DHT22;66629;47.346;19.038;2023-02-15T09:26:11;8.17;63.33
77519;DHT22;66629;47.346;19.038;2023-02-15T09:28:37;8.29;62.82
77519;DHT22;66629;47.346;19.038;2023-02-15T09:31:08;8.37;61.92
77519;DHT22;66629;47.346;19.038;2023-02-15T09:33:34;8.63;61.42
77519;DHT22;66629;47.346;19.038;2023-02-15T09:36:01;8.76;61.88
77519;DHT22;66629;47.346;19.038;2023-02-15T09:38:26;8.83;60.83
77519;DHT22;66629;47.346;19.038;2023-02-15T09:57:38;9.87;57.76
77519;DHT22;66629;47.346;19.038;2023-02-15T10:11:33;10.10;56.40
77519;DHT22;66629;47.346;19.038;2023-02-15T10:19:44;10.56;55.36
77519;DHT22;66629;47.346;19.038;2023-02-15T10:22:46;10.65;55.07
77519;DHT22;66629;47.346;19.038;2023-02-15T10:27:51;10.46;55.18
77519;DHT22;66629;47.346;19.038;2023-02-15T10:30:35;10.79;54.45
77519;DHT22;66629;47.346;19.038;2023-02-15T10:33:55;10.04;56.29
77519;DHT22;66629;47.346;19.038;2023-02-15T10:39:14;10.30;55.46
77519;DHT22;66629;47.346;19.038;2023-02-15T10:55:50;10.80;55.67
77519;DHT22;66629;47.346;19.038;2023-02-15T10:58:59;11.04;55.06
77519;DHT22;66629;47.346;19.038;2023-02-15T11:06:40;10.45;57.02
77519;DHT22;66629;47.346;19.038;2023-02-15T11:09:12;10.18;57.13
77519;DHT22;66629;47.346;19.038;2023-02-15T11:11:41;10.44;57.16
77519;DHT22;66629;47.346;19.038;2023-02-15T11:14:15;10.34;56.17
77519;DHT22;66629;47.346;19.038;2023-02-15T11:16:45;10.70;55.07
77519;DHT22;66629;47.346;19.038;2023-02-15T11:22:10;10.67;56.39
77519;DHT22;66629;47.346;19.038;2023-02-15T11:24:43;9.89;56.51
77519;DHT22;66629;47.346;19.038;2023-02-15T11:27:31;9.83;57.25
77519;DHT22;66629;47.346;19.038;2023-02-15T11:30:01;9.79;57.72
77519;DHT22;66629;47.346;19.038;2023-02-15T11:32:37;9.97;56.92
77519;DHT22;66629;47.346;19.038;2023-02-15T11:40:33;9.07;59.56
77519;DHT22;66629;47.346;19.038;2023-02-15T11:43:13;9.78;58.85
77519;DHT22;66629;47.346;19.038;2023-02-15T11:45:41;9.97;58.10
77519;DHT22;66629;47.346;19.038;2023-02-15T11:48:12;10.27;56.47
77519;DHT22;66629;47.346;19.038;2023-02-15T11:50:38;9.82;59.15
77519;DHT22;66629;47.346;19.038;2023-02-15T11:53:09;9.58;57.67
77519;DHT22;66629;47.346;19.038;2023-02-15T11:55:35;9.91;57.23
77519;DHT22;66629;47.346;19.038;2023-02-15T12:00:52;10.66;55.84
77519;DHT22;66629;47.346;19.038;2023-02-15T12:03:28;10.90;55.51
77519;DHT22;66629;47.346;19.038;2023-02-15T12:06:01;10.90;54.77
77519;DHT22;66629;47.346;19.038;2023-02-15T12:08:39;10.53;54.59
77519;DHT22;66629;47.346;19.038;2023-02-15T12:11:11;10.90;55.10
77519;DHT22;66629;47.346;19.038;2023-02-15T12:16:22;10.28;55.29
77519;DHT22;66629;47.346;19.038;2023-02-15T12:18:48;10.17;56.69
77519;DHT22;66629;47.346;19.038;2023-02-15T12:21:25;10.62;55.85
77519;DHT22;66629;47.346;19.038;2023-02-15T12:23:54;10.50;55.83
77519;DHT22;66629;47.346;19.038;2023-02-15T12:26:32;10.70;56.45
77519;DHT22;66629;47.346;19.038;2023-02-15T12:29:02;10.91;55.72
77519;DHT22;66629;47.346;19.038;2023-02-15T12:31:44;10.84;55.57
77519;DHT22;66629;47.346;19.038;2023-02-15T12:34:26;10.94;55.70
77519;DHT22;66629;47.346;19.038;2023-02-15T12:36:54;11.00;54.83
77519;DHT22;66629;47.346;19.038;2023-02-15T12:39:32;10.93;55.72
77519;DHT22;66629;47.346;19.038;2023-02-15T12:44:33;11.25;53.58
77519;DHT22;66629;47.346;19.038;2023-02-15T12:47:05;11.18;55.21
77519;DHT22;66629;47.346;19.038;2023-02-15T12:49:35;11.26;54.94
77519;DHT22;66629;47.346;19.038;2023-02-15T12:54:41;10.48;56.25
77519;DHT22;66629;47.346;19.038;2023-02-15T12:57:31;10.62;56.51
77519;DHT22;66629;47.346;19.038;2023-02-15T13:00:04;10.62;55.96
77519;DHT22;66629;47.346;19.038;2023-02-15T13:02:38;10.74;56.00
77519;DHT22;66629;47.346;19.038;2023-02-15T13:07:35;10.77;54.93
77519;DHT22;66629;47.346;19.038;2023-02-15T13:10:02;10.79;55.24
77519;DHT22;66629;47.346;19.038;2023-02-15T13:12:28;10.73;54.76
77519;DHT22;66629;47.346;19.038;2023-02-15T13:14:58;10.58;56.00
77519;DHT22;66629;47.346;19.038;2023-02-15T13:17:29;10.72;55.57
77519;DHT22;66629;47.346;19.038;2023-02-15T13:20:06;10.73;54.08
77519;DHT22;66629;47.346;19.038;2023-02-15T13:22:44;10.81;54.43
77519;DHT22;66629;47.346;19.038;2023-02-15T13:25:22;10.45;54.88
77519;DHT22;66629;47.346;19.038;2023-02-15T13:27:57;10.52;55.73
77519;DHT22;66629;47.346;19.038;2023-02-15T13:30:35;10.41;55.31
77519;DHT22;66629;47.346;19.038;2023-02-15T13:33:05;10.39;55.78
77519;DHT22;66629;47.346;19.038;2023-02-15T13:36:12;10.31;55.18
77519;DHT22;66629;47.346;19.038;2023-02-15T13:38:57;10.35;56.54
77519;DHT22;66629;47.346;19.038;2023-02-15T13:41:32;10.39;57.19
77519;DHT22;66629;47.346;19.038;2023-02-15T13:44:15;10.41;56.83
77519;DHT22;66629;47.346;19.038;2023-02-15T13:49:31;10.20;54.86
77519;DHT22;66629;47.346;19.038;2023-02-15T13:52:13;10.17;55.23
77519;DHT22;66629;47.346;19.038;2023-02-15T13:55:25;10.06;55.73
77519;DHT22;66629;47.346;19.038;2023-02-15T13:58:14;9.73;56.70
77519;DHT22;66629;47.346;19.038;2023-02-15T14:03:26;9.69;56.39
77519;DHT22;66629;47.346;19.038;2023-02-15T14:06:17;9.72;57.78
77519;DHT22;66629;47.346;19.038;2023-02-15T14:17:18;9.63;57.61
77519;DHT22;66629;47.346;19.038;2023-02-15T14:19:54;9.66;58.30
77519;DHT22;66629;47.346;19.038;2023-02-15T14:22:36;9.66;58.83
77519;DHT22;66629;47.346;19.038;2023-02-15T14:27:56;9.59;57.89
77519;DHT22;66629;47.346;19.038;2023-02-15T14:30:31;9.51;57.13
77519;DHT22;66629;47.346;19.038;2023-02-15T14:33:04;9.44;56.76
77519;DHT22;66629;47.346;19.038;2023-02-15T14:35:31;9.35;57.98
77519;DHT22;66629;47.346;19.038;2023-02-15T14:41:01;9.23;58.89
77519;DHT22;66629;47.346;19.038;2023-02-15T14:49:17;9.10;59.99
77519;DHT22;66629;47.346;19.038;2023-02-15T14:56:46;8.79;60.93
77519;DHT22;66629;47.346;19.038;2023-02-15T15:02:13;8.67;61.34
77519;DHT22;66629;47.346;19.038;2023-02-15T15:04:43;8.64;61.77
77519;DHT22;66629;47.346;19.038;2023-02-15T15:09:43;8.51;62.24
77519;DHT22;66629;47.346;19.038;2023-02-15T15:14:53;8.33;62.66
77519;DHT22;66629;47.346;19.038;2023-02-15T15:20:01;8.20;62.96
77519;DHT22;66629;47.346;19.038;2023-02-15T15:22:29;8.14;63.29
77519;DHT22;66629;47.346;19.038;2023-02-15T15:24:56;8.02;63.62
77519;DHT22;66629;47.346;19.038;2023-02-15T15:41:08;7.60;64.94
77519;DHT22;66629;47.346;19.038;2023-02-15T15:49:28;7.39;65.75
77519;DHT22;66629;47.346;19.038;2023-02-15T15:52:00;7.28;66.08
77519;DHT22;66629;47.346;19.038;2023-02-15T15:54:26;7.18;66.18
77519;DHT22;66629;47.346;19.038;2023-02-15T15:57:01;7.14;66.42
77519;DHT22;66629;47.346;19.038;2023-02-15T15:59:31;7.05;66.81
77519;DHT22;66629;47.346;19.038;2023-02-15T16:02:05;6.97;67.08
77519;DHT22;66629;47.346;19.038;2023-02-15T16:04:33;6.88;67.55
77519;DHT22;66629;47.346;19.038;2023-02-15T16:12:19;6.63;68.27
77519;DHT22;66629;47.346;19.038;2023-02-15T16:14:45;6.63;72.89
77519;DHT22;66629;47.346;19.038;2023-02-15T16:17:27;6.98;84.30
77519;DHT22;66629;47.346;19.038;2023-02-15T16:20:15;7.00;75.45
77519;DHT22;66629;47.346;19.038;2023-02-15T16:22:45;6.87;69.85
77519;DHT22;66629;47.346;19.038;2023-02-15T16:27:41;6.53;68.56
77519;DHT22;66629;47.346;19.038;2023-02-15T16:30:32;6.35;68.66
77519;DHT22;66629;47.346;19.038;2023-02-15T16:33:14;6.17;68.80
77519;DHT22;66629;47.346;19.038;2023-02-15T16:35:58;6.00;69.40
77519;DHT22;66629;47.346;19.038;2023-02-15T16:41:08;5.72;70.14
77519;DHT22;66629;47.346;19.038;2023-02-15T16:43:34;5.62;70.56
77519;DHT22;66629;47.346;19.038;2023-02-15T16:46:08;5.51;70.66
77519;DHT22;66629;47.346;19.038;2023-02-15T16:48:38;5.40;70.75
77519;DHT22;66629;47.346;19.038;2023-02-15T16:51:04;5.31;71.17
77519;DHT22;66629;47.346;19.038;2023-02-15T16:53:30;5.22;71.35
77519;DHT22;66629;47.346;19.038;2023-02-15T16:56:01;5.07;71.82
77519;DHT22;66629;47.346;19.038;2023-02-15T16:58:57;4.97;72.47
77519;DHT22;66629;47.346;19.038;2023-02-15T17:01:26;4.99;75.74
77519;DHT22;66629;47.346;19.038;2023-02-15T17:04:29;4.92;73.14
77519;DHT22;66629;47.346;19.038;2023-02-15T17:09:28;4.78;73.06
77519;DHT22;66629;47.346;19.038;2023-02-15T17:11:54;4.67;72.62
77519;DHT22;66629;47.346;19.038;2023-02-15T17:14:21;4.61;73.19
77519;DHT22;66629;47.346;19.038;2023-02-15T17:17:14;4.54;73.20
77519;DHT22;66629;47.346;19.038;2023-02-15T17:19:52;4.40;72.79
77519;DHT22;66629;47.346;19.038;2023-02-15T17:22:22;4.33;72.70
77519;DHT22;66629;47.346;19.038;2023-02-15T17:24:50;4.28;73.61
77519;DHT22;66629;47.346;19.038;2023-02-15T17:27:25;4.13;73.76
77519;DHT22;66629;47.346;19.038;2023-02-15T17:29:57;4.06;73.72
77519;DHT22;66629;47.346;19.038;2023-02-15T17:32:28;4.02;73.74
77519;DHT22;66629;47.346;19.038;2023-02-15T17:35:07;3.92;74.01
77519;DHT22;66629;47.346;19.038;2023-02-15T17:40:20;3.74;74.49
77519;DHT22;66629;47.346;19.038;2023-02-15T17:42:46;3.66;74.71
77519;DHT22;66629;47.346;19.038;2023-02-15T17:45:13;3.59;75.49
77519;DHT22;66629;47.346;19.038;2023-02-15T17:47:42;3.54;75.18
77519;DHT22;66629;47.346;19.038;2023-02-15T17:50:10;3.44;75.69
77519;DHT22;66629;47.346;19.038;2023-02-15T17:52:44;3.33;77.23
77519;DHT22;66629;47.346;19.038;2023-02-15T17:55:15;3.26;75.95
77519;DHT22;66629;47.346;19.038;2023-02-15T17:58:00;3.16;76.80
77519;DHT22;66629;47.346;19.038;2023-02-15T18:00:27;3.09;76.12
77519;DHT22;66629;47.346;19.038;2023-02-15T18:03:11;3.03;76.23
77519;DHT22;66629;47.346;19.038;2023-02-15T18:05:56;3.00;76.83
77519;DHT22;66629;47.346;19.038;2023-02-15T18:08:41;2.94;76.36
77519;DHT22;66629;47.346;19.038;2023-02-15T18:11:25;2.81;76.49
77519;DHT22;66629;47.346;19.038;2023-02-15T18:14:08;2.75;76.57
77519;DHT22;66629;47.346;19.038;2023-02-15T18:16:40;2.69;76.28
77519;DHT22;66629;47.346;19.038;2023-02-15T18:19:33;2.63;78.52
77519;DHT22;66629;47.346;19.038;2023-02-15T18:22:00;2.52;79.24
77519;DHT22;66629;47.346;19.038;2023-02-15T18:24:26;2.49;78.27
77519;DHT22;66629;47.346;19.038;2023-02-15T18:26:53;2.42;77.49
77519;DHT22;66629;47.346;19.038;2023-02-15T18:29:19;2.36;77.60
77519;DHT22;66629;47.346;19.038;2023-02-15T18:31:50;2.29;78.83
77519;DHT22;66629;47.346;19.038;2023-02-15T18:34:33;2.22;78.07
77519;DHT22;66629;47.346;19.038;2023-02-15T18:37:01;2.20;78.04
77519;DHT22;66629;47.346;19.038;2023-02-15T18:39:48;2.14;78.09
77519;DHT22;66629;47.346;19.038;2023-02-15T18:42:21;2.07;77.38
77519;DHT22;66629;47.346;19.038;2023-02-15T18:44:55;2.03;77.60